Time;durP1;ratioP1;P1;durP2;ratioP2;P2;SDS_P1;SDS_P2;PMS_P1;PMS_P2;Temp;Humidity;BMP_temperature;BMP_pressure;BME280_temperature;BME280_humidity;BME280_pressure;Samples;Min_cycle;Max_cycle;Signal;HPM_P1;HPM_P2
2021/01/18 00:00:25;;;;;;;17.75;10.82;;;;;;;8.75;61.76;102298.78;5069551;28;20087;-90
2021/01/18 00:02:51;;;;;;;17.05;9.50;;;;;;;8.77;61.81;102301.34;5064861;28;20127;-91
2021/01/18 00:05:16;;;;;;;25.17;12.85;;;;;;;8.70;62.34;102295.66;5074101;28;20037;-90
2021/01/18 00:07:47;;;;;;;23.50;13.00;;;;;;;8.72;62.26;102300.94;5069681;28;20032;-91
2021/01/18 00:10:15;;;;;;;21.08;9.68;;;;;;;8.71;61.98;102302.81;5071530;28;20202;-90
2021/01/18 00:12:48;;;;;;;14.98;7.45;;;;;;;8.68;62.17;102292.25;5071609;28;20024;-90
2021/01/18 00:15:15;;;;;;;21.13;10.82;;;;;;;8.71;62.10;102291.09;5073192;28;20562;-90
2021/01/18 00:17:41;;;;;;;19.10;11.73;;;;;;;8.73;62.14;102283.69;5067599;28;20041;-90
2021/01/18 00:20:08;;;;;;;20.20;8.63;;;;;;;8.76;62.31;102283.38;5073281;28;20492;-90
2021/01/18 00:22:36;;;;;;;22.77;11.10;;;;;;;8.77;62.27;102280.53;5071202;28;20491;-90
2021/01/18 00:25:02;;;;;;;18.95;9.05;;;;;;;8.69;61.97;102264.13;5071892;28;20043;-91
2021/01/18 00:27:28;;;;;;;20.60;8.75;;;;;;;8.73;62.03;102272.81;5072014;28;20079;-90
2021/01/18 00:29:53;;;;;;;20.13;7.93;;;;;;;8.72;61.98;102271.09;5069725;28;20028;-90
2021/01/18 00:32:22;;;;;;;22.05;10.23;;;;;;;8.65;61.93;102273.56;5070041;28;20049;-90
2021/01/18 00:34:47;;;;;;;16.58;9.63;;;;;;;8.64;61.78;102279.16;5070167;28;20033;-90
2021/01/18 00:37:13;;;;;;;17.13;8.25;;;;;;;8.59;62.02;102275.00;5070018;28;20829;-89
2021/01/18 00:39:38;;;;;;;16.60;10.70;;;;;;;8.52;61.76;102267.59;5066635;28;20082;-88
2021/01/18 00:42:04;;;;;;;19.13;11.63;;;;;;;8.49;61.95;102271.47;5051775;28;20037;-89
2021/01/18 00:44:30;;;;;;;15.52;8.45;;;;;;;8.45;62.04;102264.66;5049626;28;20024;-89
2021/01/18 00:46:55;;;;;;;18.70;9.82;;;;;;;8.38;61.99;102255.34;5073126;28;20093;-89
2021/01/18 00:49:20;;;;;;;16.80;9.60;;;;;;;8.35;61.90;102263.78;5053783;28;20051;-88
2021/01/18 00:51:46;;;;;;;17.25;11.45;;;;;;;8.33;62.13;102258.50;5071345;28;20489;-90
2021/01/18 00:54:11;;;;;;;14.93;12.02;;;;;;;8.32;62.13;102254.06;5063118;28;20102;-90
2021/01/18 00:56:36;;;;;;;19.98;15.00;;;;;;;8.30;62.34;102256.09;5070422;28;20917;-89
2021/01/18 00:59:02;;;;;;;21.05;13.88;;;;;;;8.31;62.41;102252.38;5046243;28;20032;-90
2021/01/18 01:01:27;;;;;;;19.05;13.88;;;;;;;8.29;62.74;102243.53;5070044;28;20033;-90
2021/01/18 01:03:53;;;;;;;22.55;16.05;;;;;;;8.34;62.63;102259.34;5054161;28;20066;-90
2021/01/18 01:06:18;;;;;;;16.67;9.23;;;;;;;8.35;62.80;102252.94;5069811;28;20024;-89
2021/01/18 01:08:43;;;;;;;22.45;11.70;;;;;;;8.35;63.36;102258.34;5071899;28;20432;-89
2021/01/18 01:11:09;;;;;;;21.48;14.88;;;;;;;8.39;63.23;102257.06;5069558;28;20027;-89
2021/01/18 01:13:34;;;;;;;21.65;15.80;;;;;;;8.40;63.28;102256.91;5069652;28;20360;-88
2021/01/18 01:16:00;;;;;;;24.92;16.80;;;;;;;8.38;63.66;102256.19;5069380;28;20727;-89
2021/01/18 01:18:25;;;;;;;28.05;15.98;;;;;;;8.42;63.62;102251.34;5052384;28;20033;-89
2021/01/18 01:20:51;;;;;;;24.23;17.08;;;;;;;8.46;63.75;102258.19;5068574;28;20079;-89
2021/01/18 01:23:16;;;;;;;26.70;16.98;;;;;;;8.49;63.82;102243.50;5069541;28;20170;-89
2021/01/18 01:25:42;;;;;;;29.30;18.60;;;;;;;8.46;64.24;102250.06;5064606;28;20028;-89
2021/01/18 01:28:07;;;;;;;21.20;11.30;;;;;;;8.58;63.71;102253.47;5067778;28;20031;-89
2021/01/18 01:30:33;;;;;;;25.52;13.15;;;;;;;8.63;64.06;102247.59;5072459;28;20048;-89
2021/01/18 01:32:59;;;;;;;24.00;8.13;;;;;;;8.64;64.12;102261.00;5066516;28;20659;-88
2021/01/18 01:35:27;;;;;;;19.10;9.45;;;;;;;8.60;64.38;102257.75;5069433;28;20029;-87
2021/01/18 01:37:53;;;;;;;35.97;13.23;;;;;;;8.77;64.01;102249.81;5066977;28;20029;-88
2021/01/18 01:40:19;;;;;;;19.25;9.55;;;;;;;8.81;64.12;102239.53;5066889;28;20036;-87
2021/01/18 01:42:45;;;;;;;26.90;10.32;;;;;;;8.82;63.95;102238.50;5064233;28;20395;-88
2021/01/18 01:45:12;;;;;;;21.80;11.40;;;;;;;8.93;63.88;102251.91;5065702;28;20035;-87
2021/01/18 01:47:40;;;;;;;24.52;12.20;;;;;;;9.02;64.05;102248.28;5060185;28;20032;-91
2021/01/18 01:50:12;;;;;;;15.85;6.82;;;;;;;9.10;64.15;102250.22;5069387;28;20027;-89
2021/01/18 01:52:45;;;;;;;37.92;9.25;;;;;;;9.10;64.17;102237.50;5061673;28;20043;-90
2021/01/18 01:55:31;;;;;;;23.40;7.65;;;;;;;9.17;63.80;102235.03;5070601;28;20043;-88
2021/01/18 01:57:59;;;;;;;26.70;8.60;;;;;;;9.23;63.76;102245.28;5073065;28;20052;-89
2021/01/18 02:00:36;;;;;;;21.20;8.85;;;;;;;9.21;63.60;102244.59;5069134;28;20115;-87
2021/01/18 02:03:41;;;;;;;23.65;10.27;;;;;;;9.25;63.57;102250.56;5083029;28;20589;-89
2021/01/18 02:06:08;;;;;;;20.67;9.40;;;;;;;9.10;64.18;102223.09;5088139;28;20491;-89
2021/01/18 02:08:33;;;;;;;23.30;8.07;;;;;;;9.18;63.73;102234.03;5091987;28;20058;-89
2021/01/18 02:10:59;;;;;;;29.40;9.73;;;;;;;9.19;63.95;102233.03;5053736;28;20117;-90
2021/01/18 02:13:50;;;;;;;26.00;9.95;;;;;;;9.25;63.66;102245.13;5070378;28;20048;-91
2021/01/18 02:16:33;;;;;;;19.73;10.52;;;;;;;9.28;63.61;102244.81;5068866;28;20076;-90
2021/01/18 02:19:36;;;;;;;25.13;10.18;;;;;;;9.23;63.51;102242.56;5086532;28;20062;-89
2021/01/18 02:22:07;;;;;;;27.63;11.73;;;;;;;9.23;63.74;102234.41;5089072;28;20044;-89
2021/01/18 02:24:46;;;;;;;27.92;11.90;;;;;;;9.27;63.76;102230.41;5078299;28;20082;-91
2021/01/18 02:27:46;;;;;;;26.38;13.02;;;;;;;9.21;64.17;102236.44;5088351;28;21069;-88
2021/01/18 02:33:17;;;;;;;23.02;10.05;;;;;;;9.28;63.92;102245.69;5776565;23;20388;-84
2021/01/18 02:35:52;;;;;;;24.20;10.20;;;;;;;9.25;64.22;102224.28;4999730;28;20034;-82
2021/01/18 02:38:38;;;;;;;32.22;12.80;;;;;;;9.25;64.33;102236.97;4981310;28;20053;-83
2021/01/18 02:41:22;;;;;;;31.20;9.73;;;;;;;9.26;64.28;102239.53;5002405;28;20041;-82
2021/01/18 02:43:52;;;;;;;25.13;8.25;;;;;;;9.30;64.13;102232.81;4981661;28;20057;-83
2021/01/18 02:46:20;;;;;;;29.08;12.27;;;;;;;9.28;64.25;102232.13;5003228;28;20025;-82
2021/01/18 02:48:47;;;;;;;29.13;10.43;;;;;;;9.34;64.15;102227.06;5001421;28;20101;-82
2021/01/18 02:51:17;;;;;;;27.60;10.23;;;;;;;9.35;64.41;102228.78;5003012;28;20029;-82
2021/01/18 02:54:00;;;;;;;32.03;12.52;;;;;;;9.45;64.30;102229.53;5000554;28;20018;-83
2021/01/18 02:56:27;;;;;;;28.83;9.95;;;;;;;9.45;63.96;102227.72;4999869;28;20026;-82
2021/01/18 02:58:58;;;;;;;34.30;16.67;;;;;;;9.40;64.52;102221.03;4983457;28;20500;-82
2021/01/18 03:02:03;;;;;;;35.90;12.63;;;;;;;9.43;64.47;102223.44;4996009;28;20555;-83
2021/01/18 03:04:37;;;;;;;34.17;12.75;;;;;;;9.41;64.34;102222.75;5000814;28;20034;-82
2021/01/18 03:07:12;;;;;;;30.75;11.70;;;;;;;9.49;64.37;102220.09;5002668;28;20037;-82
2021/01/18 03:09:49;;;;;;;35.55;16.17;;;;;;;9.47;64.06;102213.97;4999368;28;20042;-83
2021/01/18 03:12:19;;;;;;;24.80;12.57;;;;;;;9.47;63.98;102222.13;5004019;28;20033;-83
2021/01/18 03:14:47;;;;;;;39.45;14.43;;;;;;;9.37;64.45;102219.47;5001834;28;20025;-83
2021/01/18 03:17:21;;;;;;;30.45;11.35;;;;;;;9.47;64.24;102219.41;5000317;28;20033;-83
2021/01/18 03:19:47;;;;;;;34.33;14.90;;;;;;;9.48;64.18;102221.09;4983814;28;20060;-83
2021/01/18 03:22:29;;;;;;;28.73;12.10;;;;;;;9.50;64.32;102221.81;4995508;28;20041;-82
2021/01/18 03:25:06;;;;;;;27.35;12.75;;;;;;;9.55;64.65;102214.03;5004351;28;20084;-82
2021/01/18 03:27:57;;;;;;;25.83;16.75;;;;;;;9.63;64.31;102205.94;4975302;28;20484;-82
2021/01/18 03:30:23;;;;;;;27.10;14.02;;;;;;;9.64;64.56;102196.81;5003142;28;20084;-82
2021/01/18 03:32:51;;;;;;;38.35;15.50;;;;;;;9.71;64.44;102190.75;4999960;28;20064;-82
2021/01/18 03:35:17;;;;;;;32.42;15.68;;;;;;;9.76;64.47;102188.41;5002878;28;20554;-82
2021/01/18 03:37:43;;;;;;;33.10;15.57;;;;;;;9.78;64.10;102183.69;4994718;28;20042;-82
2021/01/18 03:40:08;;;;;;;29.02;15.40;;;;;;;9.72;64.65;102198.75;4986121;28;20036;-82
2021/01/18 03:42:34;;;;;;;34.28;15.95;;;;;;;9.66;65.05;102194.78;4984764;28;20157;-82
2021/01/18 03:44:59;;;;;;;26.15;14.52;;;;;;;9.75;64.77;102194.88;5007177;28;20443;-83
2021/01/18 03:47:25;;;;;;;36.30;18.42;;;;;;;9.76;64.60;102191.13;4988434;28;20033;-81
2021/01/18 03:49:50;;;;;;;28.67;21.75;;;;;;;9.78;64.74;102186.41;5007356;28;20040;-82
2021/01/18 03:52:15;;;;;;;33.15;14.10;;;;;;;9.85;64.12;102179.31;4987643;28;20042;-82
2021/01/18 03:54:41;;;;;;;41.63;19.38;;;;;;;9.68;64.93;102176.47;4985544;28;20041;-81
2021/01/18 03:57:06;;;;;;;31.95;12.38;;;;;;;9.77;65.05;102171.09;5007035;28;20507;-83
2021/01/18 03:59:31;;;;;;;37.88;15.93;;;;;;;9.87;64.92;102174.59;5006429;28;20034;-81
2021/01/18 04:01:57;;;;;;;43.38;14.77;;;;;;;9.77;65.30;102173.81;5007115;28;20033;-82
2021/01/18 04:04:22;;;;;;;34.60;14.73;;;;;;;9.81;64.80;102177.94;4985341;28;20272;-83
2021/01/18 04:06:48;;;;;;;34.75;15.40;;;;;;;9.80;65.01;102181.66;4999293;28;20034;-81
2021/01/18 04:09:13;;;;;;;34.70;13.82;;;;;;;9.86;65.08;102175.59;5005689;28;20026;-82
2021/01/18 04:11:38;;;;;;;40.45;13.60;;;;;;;9.86;64.79;102172.88;5007052;28;20031;-82
2021/01/18 04:14:04;;;;;;;33.65;12.98;;;;;;;9.80;65.15;102168.06;5007416;28;20037;-82
2021/01/18 04:16:29;;;;;;;36.17;14.27;;;;;;;9.81;64.86;102181.50;5004990;28;20526;-83
2021/01/18 04:18:55;;;;;;;29.65;13.15;;;;;;;9.98;64.44;102181.63;5003292;28;20042;-82
2021/01/18 04:21:20;;;;;;;34.97;11.65;;;;;;;9.86;64.75;102176.44;5002922;28;20049;-82
2021/01/18 04:23:45;;;;;;;35.67;16.05;;;;;;;9.91;64.26;102170.50;4987683;28;20419;-83
2021/01/18 04:26:12;;;;;;;32.78;13.52;;;;;;;9.84;64.90;102167.59;5004306;28;20479;-83
2021/01/18 04:28:38;;;;;;;24.13;10.57;;;;;;;9.92;64.27;102164.06;5002009;28;20037;-81
2021/01/18 04:31:04;;;;;;;44.33;10.98;;;;;;;9.83;64.78;102168.59;4984998;28;20038;-83
2021/01/18 04:33:29;;;;;;;32.85;11.32;;;;;;;9.87;64.45;102163.72;4977020;28;20381;-83
2021/01/18 04:35:56;;;;;;;33.70;13.20;;;;;;;9.77;65.00;102160.22;5004661;28;20033;-81
2021/01/18 04:38:22;;;;;;;28.27;12.65;;;;;;;9.80;64.64;102158.03;5004305;28;20036;-83
2021/01/18 04:40:48;;;;;;;24.08;11.70;;;;;;;9.83;64.13;102155.00;5003181;28;20483;-83
2021/01/18 04:43:16;;;;;;;25.67;11.82;;;;;;;9.67;64.67;102157.63;5002785;28;20049;-81
2021/01/18 04:45:42;;;;;;;33.85;13.07;;;;;;;9.64;64.99;102157.94;5003806;28;20046;-81
2021/01/18 04:48:08;;;;;;;44.50;14.57;;;;;;;9.73;64.67;102145.25;4982950;28;20147;-82
2021/01/18 04:50:34;;;;;;;25.88;9.50;;;;;;;9.74;64.95;102149.69;5003740;28;20034;-82
2021/01/18 04:53:01;;;;;;;23.27;8.63;;;;;;;9.81;64.74;102148.03;5002722;28;20034;-83
2021/01/18 04:55:27;;;;;;;34.45;8.55;;;;;;;10.01;64.11;102156.84;4998932;28;20033;-82
2021/01/18 04:58:19;;;;;;;24.80;8.48;;;;;;;9.97;64.27;102150.00;4998364;28;20022;-83
2021/01/18 05:00:47;;;;;;;29.48;8.35;;;;;;;9.84;64.41;102134.16;4981178;28;20048;-82
2021/01/18 05:03:15;;;;;;;23.33;9.00;;;;;;;9.93;64.31;102135.03;5000212;28;20130;-82
2021/01/18 05:05:53;;;;;;;36.50;10.48;;;;;;;9.84;64.59;102136.88;4982872;28;20030;-83
2021/01/18 05:08:43;;;;;;;39.10;9.55;;;;;;;9.80;64.60;102130.03;5000879;28;20037;-82
2021/01/18 05:11:13;;;;;;;29.70;9.65;;;;;;;9.78;64.96;102127.47;5002410;28;20034;-82
2021/01/18 05:13:39;;;;;;;39.50;11.68;;;;;;;9.77;65.10;102128.47;5001450;28;20509;-82
2021/01/18 05:16:09;;;;;;;32.65;7.95;;;;;;;9.73;65.21;102123.50;5001128;28;20030;-80
2021/01/18 05:18:37;;;;;;;23.98;6.95;;;;;;;9.99;64.60;102128.94;5001518;28;20030;-81
2021/01/18 05:21:04;;;;;;;29.13;7.05;;;;;;;9.95;64.28;102131.16;4998970;28;20030;-82
2021/01/18 05:23:29;;;;;;;25.05;7.35;;;;;;;9.88;64.78;102121.91;5001216;28;20115;-82
2021/01/18 05:26:13;;;;;;;32.90;8.27;;;;;;;9.95;64.58;102124.88;5002182;28;20027;-82
2021/01/18 05:28:43;;;;;;;30.20;6.47;;;;;;;9.93;64.45;102126.88;5002480;28;20220;-83
2021/01/18 05:31:08;;;;;;;27.35;8.15;;;;;;;10.08;63.85;102127.16;4999320;28;20053;-82
2021/01/18 05:33:40;;;;;;;38.67;12.30;;;;;;;9.97;64.43;102126.41;5000647;28;20084;-82
2021/01/18 05:36:05;;;;;;;24.38;9.68;;;;;;;10.10;63.91;102130.53;5002505;28;20079;-82
2021/01/18 05:38:31;;;;;;;29.73;9.02;;;;;;;9.98;64.29;102122.69;4987294;28;20503;-81
2021/01/18 05:40:59;;;;;;;23.02;8.88;;;;;;;9.91;64.68;102115.31;4998168;28;20034;-81
2021/01/18 05:43:33;;;;;;;31.20;12.95;;;;;;;10.00;64.52;102107.06;4984835;28;20046;-82
2021/01/18 05:46:04;;;;;;;39.47;12.20;;;;;;;9.78;64.86;102113.03;5002080;28;20058;-81
2021/01/18 05:48:30;;;;;;;27.08;10.98;;;;;;;9.93;64.84;102114.16;4965860;28;20038;-82
2021/01/18 05:51:00;;;;;;;29.30;10.70;;;;;;;10.04;64.22;102116.59;4983874;28;20034;-82
2021/01/18 05:53:30;;;;;;;39.42;12.45;;;;;;;9.91;64.32;102109.88;4987963;28;20080;-81
2021/01/18 05:55:56;;;;;;;37.05;13.93;;;;;;;10.09;64.06;102112.56;4987052;28;20191;-84
2021/01/18 05:58:32;;;;;;;34.15;14.38;;;;;;;10.20;63.53;102120.41;4996903;28;20117;-82
2021/01/18 06:01:01;;;;;;;25.05;12.75;;;;;;;10.00;64.02;102107.06;4984556;28;20400;-83
2021/01/18 06:03:31;;;;;;;39.05;12.77;;;;;;;9.98;64.25;102108.25;4977143;28;20049;-82
2021/01/18 06:05:57;;;;;;;29.17;14.85;;;;;;;10.01;64.01;102108.75;4986466;28;20100;-83
2021/01/18 06:08:24;;;;;;;36.67;16.98;;;;;;;9.96;64.33;102102.09;5000574;28;20506;-83
2021/01/18 06:10:52;;;;;;;35.55;13.43;;;;;;;10.05;63.63;102101.13;5003709;28;20061;-82
2021/01/18 06:13:22;;;;;;;26.80;8.77;;;;;;;9.83;64.35;102100.66;5000173;28;20034;-82
2021/01/18 06:15:49;;;;;;;26.98;10.55;;;;;;;9.87;64.49;102106.66;4995460;28;20369;-82
2021/01/18 06:18:16;;;;;;;21.80;10.65;;;;;;;10.03;64.17;102105.88;4981937;28;20030;-83
2021/01/18 06:20:43;;;;;;;20.52;9.55;;;;;;;9.95;64.15;102098.53;4970611;28;20038;-83
2021/01/18 06:23:09;;;;;;;31.23;10.18;;;;;;;10.12;63.65;102104.06;5003447;28;20044;-82
2021/01/18 06:25:36;;;;;;;24.40;7.50;;;;;;;10.09;63.79;102093.53;5000843;28;20459;-80
2021/01/18 06:28:03;;;;;;;26.40;8.18;;;;;;;9.87;64.35;102087.63;5002025;28;20545;-80
2021/01/18 06:30:30;;;;;;;25.65;11.38;;;;;;;9.92;64.52;102090.72;4995459;28;20395;-80
2021/01/18 06:33:00;;;;;;;29.52;13.00;;;;;;;10.13;63.97;102092.16;4984392;28;20488;-81
2021/01/18 06:35:30;;;;;;;27.70;13.05;;;;;;;9.86;64.74;102089.47;4996940;28;20092;-81
2021/01/18 06:38:07;;;;;;;25.03;12.10;;;;;;;9.93;64.24;102086.13;5001343;28;20140;-81
2021/01/18 06:40:36;;;;;;;24.10;12.27;;;;;;;9.80;64.57;102092.00;5000938;28;20450;-80
2021/01/18 06:43:04;;;;;;;24.33;11.40;;;;;;;9.96;64.25;102092.09;4986319;28;20511;-82
2021/01/18 06:45:32;;;;;;;28.23;12.52;;;;;;;9.92;64.25;102090.72;4999186;28;20104;-81
2021/01/18 06:47:59;;;;;;;22.98;10.05;;;;;;;9.86;64.71;102092.19;5000048;28;20113;-82
2021/01/18 06:50:30;;;;;;;34.92;13.25;;;;;;;10.08;63.65;102097.25;4982104;28;20104;-82
2021/01/18 06:52:56;;;;;;;;;;;;;;;9.97;64.08;102120.97;5001225;28;20224;-81
2021/01/18 06:55:26;;;;;;;33.42;11.85;;;;;;;10.05;63.89;102106.56;5001994;28;19929;-83
2021/01/18 06:58:10;;;;;;;25.25;11.02;;;;;;;10.19;63.36;102118.69;4997435;28;20042;-81
2021/01/18 07:00:40;;;;;;;22.42;9.75;;;;;;;10.09;63.43;102115.28;5001892;28;20042;-80
2021/01/18 07:03:38;;;;;;;23.55;9.27;;;;;;;9.91;64.26;102116.16;4981883;28;20439;-81
2021/01/18 07:06:22;;;;;;;34.35;15.65;;;;;;;10.12;63.70;102112.22;4998564;28;20032;-82
2021/01/18 07:08:52;;;;;;;29.52;14.60;;;;;;;10.08;63.92;102116.28;5003332;28;20036;-83
2021/01/18 07:11:18;;;;;;;29.63;9.70;;;;;;;10.11;63.78;102122.22;5000876;28;20492;-83
2021/01/18 07:13:48;;;;;;;26.27;11.32;;;;;;;10.09;63.81;102109.84;4986108;28;20049;-83
2021/01/18 07:16:17;;;;;;;33.40;8.30;;;;;;;10.19;63.30;102127.72;5004814;28;20034;-82
2021/01/18 07:18:49;;;;;;;29.63;12.52;;;;;;;10.00;63.86;102126.06;5005076;28;20045;-82
2021/01/18 07:21:17;;;;;;;33.42;10.23;;;;;;;10.07;63.85;102117.28;4987432;28;20077;-82
2021/01/18 07:23:52;;;;;;;33.78;9.27;;;;;;;10.30;63.12;102120.28;5002850;28;20026;-82
2021/01/18 07:26:46;;;;;;;28.48;9.27;;;;;;;10.20;63.45;102123.13;5006152;28;20049;-82
2021/01/18 07:29:13;;;;;;;25.63;11.38;;;;;;;10.31;63.16;102119.28;4997895;28;20030;-83
2021/01/18 07:31:44;;;;;;;33.13;9.48;;;;;;;10.17;63.48;102118.84;5000004;28;20022;-82
2021/01/18 07:34:12;;;;;;;28.30;12.88;;;;;;;10.37;63.01;102121.38;4985826;28;20031;-82
2021/01/18 07:36:38;;;;;;;21.80;8.95;;;;;;;10.11;63.87;102110.50;5004612;28;20088;-81
2021/01/18 07:39:28;;;;;;;26.17;8.07;;;;;;;10.25;63.24;102117.22;5004187;28;20172;-82
2021/01/18 07:41:54;;;;;;;27.52;13.07;;;;;;;10.47;62.54;102113.94;4985629;28;20042;-82
2021/01/18 07:44:44;;;;;;;33.45;11.15;;;;;;;10.32;63.20;102121.00;4989707;28;20471;-83
2021/01/18 07:47:11;;;;;;;25.33;8.85;;;;;;;10.34;62.97;102114.38;4998553;28;20034;-82
2021/01/18 07:49:39;;;;;;;22.70;8.40;;;;;;;10.39;62.77;102120.22;5003079;28;20407;-81
2021/01/18 07:52:40;;;;;;;29.92;7.30;;;;;;;10.08;63.85;102117.13;5000182;28;20037;-81
2021/01/18 07:55:21;;;;;;;21.40;8.30;;;;;;;10.44;62.97;102113.41;4907313;29;20032;-81
2021/01/18 07:57:46;;;;;;;;;;;;;;;10.56;62.27;102121.09;4969534;28;20038;-82
2021/01/18 08:00:18;;;;;;;27.70;8.20;;;;;;;10.64;62.13;102111.25;5005511;28;20386;-81
2021/01/18 08:02:47;;;;;;;28.65;9.52;;;;;;;10.63;61.95;102109.53;5001706;28;20050;-82
2021/01/18 08:05:19;;;;;;;27.48;11.70;;;;;;;10.52;62.22;102114.28;5005003;28;20033;-81
2021/01/18 08:08:01;;;;;;;31.30;9.48;;;;;;;10.46;62.67;102111.38;5001604;28;20034;-83
2021/01/18 08:10:54;;;;;;;29.00;11.48;;;;;;;10.39;62.68;102106.59;5005213;28;20030;-81
2021/01/18 08:13:41;;;;;;;23.52;13.05;;;;;;;10.50;62.59;102100.03;5004818;28;20034;-82
2021/01/18 08:16:18;;;;;;;25.88;8.10;;;;;;;10.37;62.95;102097.75;5002560;28;20049;-83
2021/01/18 08:19:14;;;;;;;22.25;10.48;;;;;;;10.38;62.77;102093.19;4983789;28;20034;-83
2021/01/18 08:21:42;;;;;;;26.27;8.68;;;;;;;10.34;62.80;102095.34;5001968;28;20487;-82
2021/01/18 08:24:09;;;;;;;30.45;8.43;;;;;;;10.37;62.97;102089.59;5002027;28;20038;-83
2021/01/18 08:27:04;;;;;;;23.83;7.80;;;;;;;10.25;63.34;102090.03;5002899;28;20539;-82
2021/01/18 08:29:45;;;;;;;25.80;8.48;;;;;;;10.41;62.71;102084.69;4999631;28;20376;-82
2021/01/18 08:32:31;;;;;;;24.40;9.93;;;;;;;10.34;63.06;102080.91;5000729;28;20026;-85
2021/01/18 08:35:22;;;;;;;24.73;10.57;;;;;;;10.28;63.20;102082.38;5001464;28;20053;-83
2021/01/18 08:38:07;;;;;;;29.92;9.65;;;;;;;10.57;62.45;102083.88;5003533;28;20030;-84
2021/01/18 08:40:44;;;;;;;26.50;7.68;;;;;;;10.42;62.97;102091.81;5002844;28;20381;-81
2021/01/18 08:43:12;;;;;;;22.05;9.00;;;;;;;10.63;62.60;102085.06;5001861;28;20041;-82
2021/01/18 08:45:44;;;;;;;27.42;9.30;;;;;;;10.81;61.96;102077.63;4997039;28;20129;-84
2021/01/18 08:48:12;;;;;;;26.23;11.25;;;;;;;10.60;62.51;102071.78;5001394;28;20037;-84
2021/01/18 08:50:53;;;;;;;22.48;11.85;;;;;;;10.60;62.82;102080.81;4997923;28;20034;-84
2021/01/18 08:53:30;;;;;;;24.58;10.15;;;;;;;10.66;62.43;102069.28;5002891;28;20045;-82
2021/01/18 08:55:57;;;;;;;25.05;13.35;;;;;;;10.69;62.39;102077.09;5001118;28;20065;-82
2021/01/18 08:58:49;;;;;;;26.73;14.20;;;;;;;10.71;62.35;102064.19;5001517;28;20487;-83
2021/01/18 09:01:30;;;;;;;32.85;21.45;;;;;;;10.73;62.26;102069.47;4992284;28;20050;-84
2021/01/18 09:04:02;;;;;;;31.08;15.57;;;;;;;10.88;61.78;102058.78;4997223;28;20037;-84
2021/01/18 09:06:28;;;;;;;29.58;14.23;;;;;;;10.91;61.57;102058.44;5000541;28;20503;-83
2021/01/18 09:09:03;;;;;;;25.23;13.77;;;;;;;10.97;61.53;102048.72;5002049;28;20041;-83
2021/01/18 09:11:29;;;;;;;26.35;15.98;;;;;;;10.96;61.24;102049.75;4982913;28;20392;-84
2021/01/18 09:13:54;;;;;;;22.15;9.68;;;;;;;10.78;62.24;102045.31;5001431;28;20723;-85
2021/01/18 09:16:20;;;;;;;22.45;10.05;;;;;;;10.72;62.16;102033.25;4999421;28;20037;-84
2021/01/18 09:18:46;;;;;;;27.95;11.43;;;;;;;10.64;62.13;102046.81;4999248;28;20033;-83
2021/01/18 09:21:11;;;;;;;30.67;12.70;;;;;;;10.82;62.32;102043.97;4986214;28;20099;-84
2021/01/18 09:23:37;;;;;;;24.10;10.15;;;;;;;10.89;62.12;102044.13;4996044;28;20546;-85
2021/01/18 09:26:12;;;;;;;22.20;8.05;;;;;;;10.78;62.12;102037.13;5001020;28;20033;-84
2021/01/18 09:28:50;;;;;;;30.85;12.65;;;;;;;10.83;62.07;102042.94;5002933;28;20026;-84
2021/01/18 09:31:15;;;;;;;30.67;10.80;;;;;;;10.93;61.83;102034.59;5001828;28;20499;-84
2021/01/18 09:33:42;;;;;;;35.60;13.18;;;;;;;10.89;61.64;102038.69;5001130;28;20046;-82
2021/01/18 09:36:15;;;;;;;28.23;11.60;;;;;;;11.15;61.28;102043.97;4997346;28;20034;-83
2021/01/18 09:38:42;;;;;;;29.30;9.50;;;;;;;11.08;61.53;102042.97;4999934;28;20038;-84
2021/01/18 09:41:09;;;;;;;19.75;8.10;;;;;;;11.09;61.16;102034.63;5001112;28;20507;-84
2021/01/18 09:43:34;;;;;;;30.50;10.23;;;;;;;10.83;61.93;102052.97;5000140;28;20460;-83
2021/01/18 09:46:01;;;;;;;32.65;11.55;;;;;;;11.05;61.36;102048.75;4996508;28;20049;-84
2021/01/18 09:48:27;;;;;;;27.80;16.27;;;;;;;10.64;62.09;102051.41;5002614;28;20037;-83
2021/01/18 09:51:07;;;;;;;24.17;14.13;;;;;;;11.03;61.39;102050.78;4996266;28;20068;-84
2021/01/18 09:53:33;;;;;;;26.10;9.13;;;;;;;11.01;61.41;102048.22;4991335;28;20117;-85
2021/01/18 09:56:06;;;;;;;21.50;9.90;;;;;;;10.86;61.87;102045.34;4998008;28;20387;-83
2021/01/18 09:58:38;;;;;;;28.35;12.40;;;;;;;11.34;60.63;102052.81;4997347;28;20108;-84
2021/01/18 10:01:33;;;;;;;20.10;9.98;;;;;;;11.12;61.15;102071.53;4997074;28;20688;-82
2021/01/18 10:04:02;;;;;;;22.92;10.90;;;;;;;10.92;61.47;102044.66;4998803;28;20119;-82
2021/01/18 10:06:29;;;;;;;28.05;10.95;;;;;;;11.10;61.05;102054.53;4998042;28;20034;-82
2021/01/18 10:09:02;;;;;;;21.23;7.55;;;;;;;11.17;61.09;102050.13;5004131;28;20061;-84
2021/01/18 10:11:43;;;;;;;27.38;13.27;;;;;;;11.16;61.04;102045.69;4998957;28;20619;-83
2021/01/18 10:14:23;;;;;;;19.20;8.95;;;;;;;11.14;60.86;102042.28;4981669;28;20438;-82
2021/01/18 10:17:03;;;;;;;22.65;12.68;;;;;;;11.21;60.60;102046.00;5000574;28;20026;-83
2021/01/18 10:19:29;;;;;;;19.95;8.45;;;;;;;11.08;61.00;102038.34;4980562;28;20034;-83
2021/01/18 10:21:55;;;;;;;33.65;8.02;;;;;;;11.28;60.51;102043.47;5002851;28;20040;-83
2021/01/18 10:24:34;;;;;;;22.40;7.35;;;;;;;11.35;60.48;102041.75;4987059;28;20030;-84
2021/01/18 10:27:04;;;;;;;22.77;6.88;;;;;;;11.50;60.22;102041.91;5001898;28;20045;-85
2021/01/18 10:29:30;;;;;;;22.73;6.85;;;;;;;11.34;60.14;102034.59;5003292;28;20128;-83
2021/01/18 10:31:56;;;;;;;24.55;7.60;;;;;;;11.26;60.79;102050.94;4984984;28;20603;-84
2021/01/18 10:34:21;;;;;;;31.65;9.50;;;;;;;11.30;60.73;102035.97;4999867;28;20133;-83
2021/01/18 10:36:51;;;;;;;18.30;8.27;;;;;;;11.60;60.11;102041.69;5002849;28;20083;-83
2021/01/18 10:39:34;;;;;;;27.77;7.65;;;;;;;11.39;60.63;102034.94;5001338;28;20411;-83
2021/01/18 10:42:10;;;;;;;28.75;12.15;;;;;;;11.34;60.76;102042.78;4968388;28;20062;-82
2021/01/18 10:44:38;;;;;;;25.98;11.10;;;;;;;11.34;60.78;102033.75;4986019;28;20025;-83
2021/01/18 10:47:45;;;;;;;26.40;9.60;;;;;;;11.17;61.18;102031.06;5002661;28;20119;-83
2021/01/18 10:50:04;;;;;;;21.67;8.75;;;;;;;11.28;61.03;102036.13;5000239;28;20042;-82
2021/01/18 10:52:41;;;;;;;32.22;11.75;;;;;;;11.24;61.41;102032.03;4981478;28;20561;-83
2021/01/18 10:55:08;;;;;;;22.60;7.80;;;;;;;11.48;60.67;102033.06;5002888;28;20470;-82
2021/01/18 10:57:45;;;;;;;22.55;9.38;;;;;;;11.42;60.65;102029.16;4999235;28;20066;-81
2021/01/18 11:00:15;;;;;;;26.00;8.90;;;;;;;11.43;60.90;102030.84;5006417;28;20384;-84
2021/01/18 11:02:42;;;;;;;25.15;7.97;;;;;;;11.31;61.11;102026.78;5003926;28;20161;-82
2021/01/18 11:05:15;;;;;;;17.63;6.85;;;;;;;11.46;60.58;102019.63;5002699;28;20030;-84
2021/01/18 11:07:46;;;;;;;25.13;7.65;;;;;;;11.30;61.12;102014.19;5001921;28;20072;-83
2021/01/18 11:10:14;;;;;;;23.63;14.38;;;;;;;11.51;60.91;102010.91;5001849;28;20026;-84
2021/01/18 11:12:41;;;;;;;23.00;10.23;;;;;;;11.50;60.70;102006.47;4998760;28;20049;-82
2021/01/18 11:15:10;;;;;;;19.23;10.15;;;;;;;11.61;60.44;102010.72;4988558;28;20104;-83
2021/01/18 11:17:35;;;;;;;21.48;7.55;;;;;;;11.31;60.73;102010.44;5004802;28;20025;-82
2021/01/18 11:20:05;;;;;;;19.65;9.02;;;;;;;11.38;60.52;102016.88;5004727;28;20551;-86
2021/01/18 11:22:30;;;;;;;25.25;7.80;;;;;;;11.39;60.39;102015.88;5004960;28;20045;-81
2021/01/18 11:24:56;;;;;;;30.77;9.45;;;;;;;11.44;60.67;102018.06;5004424;28;20034;-84
2021/01/18 11:27:22;;;;;;;20.95;7.68;;;;;;;11.70;60.01;101998.75;5001419;28;20034;-82
2021/01/18 11:29:48;;;;;;;16.73;7.75;;;;;;;11.84;59.71;102016.28;5004486;28;20048;-84
2021/01/18 11:32:13;;;;;;;26.42;10.02;;;;;;;11.94;59.78;102011.50;5007224;28;20387;-82
2021/01/18 11:34:39;;;;;;;21.17;8.60;;;;;;;12.11;59.25;102023.19;4986312;28;20691;-83
2021/01/18 11:37:05;;;;;;;26.63;11.88;;;;;;;11.78;59.87;102019.69;5006091;28;20030;-82